Time,TemperatureF,DewpointF,PressureIn,WindDirection,WindDirectionDegrees,WindSpeedMPH,WindSpeedGustMPH,Humidity,HourlyPrecipIn,Conditions,Clouds,dailyrainin,SolarRadiationWatts/m^2,SoftwareType,DateUTC
2013-01-17 00:02:00,34.0,18.0,-100.00,ENE,78,0.0,0.0,51,0.00,,,0.23,0.000000,,2013-01-17 08:02:00,
2013-01-17 00:12:00,34.0,18.0,-100.00,ENE,78,0.0,0.0,51,0.00,,,0.23,0.000000,,2013-01-17 08:12:00,
2013-01-17 00:43:00,34.0,14.0,-100.00,East,96,0.0,0.0,43,0.00,,,0.23,0.000000,,2013-01-17 08:43:00,
2013-01-17 00:53:00,34.0,14.0,-100.00,East,96,0.0,0.0,43,0.00,,,0.23,0.000000,,2013-01-17 08:53:00,
2013-01-17 01:02:00,34.0,14.0,-100.00,East,96,0.0,0.0,43,0.00,,,0.23,0.000000,,2013-01-17 09:02:00,
2013-01-17 01:12:00,34.0,14.0,-100.00,East,96,0.0,0.0,43,0.00,,,0.23,0.000000,,2013-01-17 09:12:00,
2013-01-17 01:33:00,36.0,15.0,-100.00,SSW,208,0.0,0.0,41,0.00,,,0.23,0.000000,,2013-01-17 09:33:00,
2013-01-17 01:43:00,36.0,15.0,-100.00,SSW,208,0.0,0.0,41,0.00,,,0.23,0.000000,,2013-01-17 09:43:00,
2013-01-17 01:52:00,36.0,15.0,-100.00,SSW,208,0.0,0.0,41,0.00,,,0.23,0.000000,,2013-01-17 09:52:00,
2013-01-17 02:02:00,36.0,15.0,-100.00,SSW,208,0.0,0.0,41,0.00,,,0.23,0.000000,,2013-01-17 10:02:00,
2013-01-17 02:11:00,36.0,15.0,-100.00,SSW,208,0.0,0.0,41,0.00,,,0.23,0.000000,,2013-01-17 10:11:00,
2013-01-17 02:33:00,32.0,14.0,-100.00,ENE,61,0.0,0.0,47,0.00,,,-99.99,0.000000,,2013-01-17 10:33:00,
2013-01-17 02:43:00,32.0,14.0,-100.00,ENE,61,0.0,0.0,47,0.00,,,-99.99,0.000000,,2013-01-17 10:43:00,
2013-01-17 02:53:00,32.0,14.0,-100.00,ENE,61,0.0,0.0,47,0.00,,,-99.99,0.000000,,2013-01-17 10:53:00,
2013-01-17 03:02:00,32.0,14.0,-100.00,ENE,61,0.0,0.0,47,0.00,,,-99.99,0.000000,,2013-01-17 11:02:00,
2013-01-17 03:11:00,32.0,14.0,-100.00,ENE,61,0.0,0.0,47,0.00,,,-99.99,0.000000,,2013-01-17 11:11:00,
2013-01-17 03:33:00,32.0,14.0,-100.00,SSW,213,0.0,0.0,46,0.00,,,-99.99,0.000000,,2013-01-17 11:33:00,
2013-01-17 03:43:00,32.0,14.0,-100.00,SSW,213,0.0,0.0,46,0.00,,,-99.99,0.000000,,2013-01-17 11:43:00,
2013-01-17 03:53:00,32.0,14.0,-100.00,SSW,213,0.0,0.0,46,0.00,,,-99.99,0.000000,,2013-01-17 11:53:00,
2013-01-17 04:02:00,32.0,14.0,-100.00,SSW,213,0.0,0.0,46,0.00,,,-99.99,0.000000,,2013-01-17 12:02:00,
2013-01-17 04:12:00,32.0,14.0,-100.00,SSW,213,0.0,0.0,46,0.00,,,-99.99,0.000000,,2013-01-17 12:12:00,
2013-01-17 04:33:00,31.0,13.0,-100.00,SW,226,0.0,0.0,47,0.00,,,0.23,0.000000,,2013-01-17 12:33:00,
2013-01-17 04:43:00,31.0,13.0,-100.00,SW,226,0.0,0.0,47,0.00,,,0.23,0.000000,,2013-01-17 12:43:00,
2013-01-17 04:53:00,31.0,13.0,-100.00,SW,226,0.0,0.0,47,0.00,,,0.23,0.000000,,2013-01-17 12:53:00,
2013-01-17 05:03:00,31.0,13.0,-100.00,SW,226,0.0,0.0,47,0.00,,,0.23,0.000000,,2013-01-17 13:03:00,
2013-01-17 05:12:00,31.0,13.0,-100.00,SW,226,0.0,0.0,47,0.00,,,0.23,0.000000,,2013-01-17 13:12:00,
2013-01-17 05:33:00,25.0,13.0,-100.00,WSW,253,0.0,0.0,59,0.00,,,0.23,0.000000,,2013-01-17 13:33:00,
2013-01-17 05:43:00,25.0,13.0,-100.00,WSW,253,0.0,0.0,59,0.00,,,0.23,0.000000,,2013-01-17 13:43:00,
2013-01-17 05:53:00,25.0,13.0,-100.00,WSW,253,0.0,0.0,59,0.00,,,0.23,0.000000,,2013-01-17 13:53:00,
2013-01-17 06:03:00,25.0,13.0,-100.00,WSW,253,0.0,0.0,59,0.00,,,0.23,0.000000,,2013-01-17 14:03:00,
2013-01-17 06:12:00,25.0,13.0,-100.00,WSW,253,0.0,0.0,59,0.00,,,0.23,0.000000,,2013-01-17 14:12:00,
2013-01-17 06:33:00,22.0,19.0,-100.00,ENE,71,0.0,2.0,89,0.00,,,0.23,0.000000,,2013-01-17 14:33:00,
2013-01-17 07:33:00,22.0,16.0,-100.00,NE,45,0.0,3.0,76,-99.99,,,0.23,0.000000,,2013-01-17 15:33:00,
2013-01-17 08:02:00,22.0,16.0,-100.00,NE,45,0.0,3.0,76,-99.99,,,0.23,0.000000,,2013-01-17 16:02:00,
2013-01-17 08:44:00,21.0,19.0,-100.00,NE,54,0.0,0.0,91,-99.99,,,0.23,51.000000,,2013-01-17 16:44:00,
2013-01-17 08:53:00,21.0,19.0,-100.00,NE,54,0.0,0.0,91,-99.99,,,0.23,51.000000,,2013-01-17 16:53:00,
2013-01-17 09:33:00,32.0,19.0,-100.00,West,273,0.0,0.0,58,-99.99,,,-99.99,231.000000,,2013-01-17 17:33:00,
2013-01-17 09:43:00,32.0,19.0,-100.00,West,273,0.0,0.0,58,-99.99,,,-99.99,231.000000,,2013-01-17 17:43:00,
2013-01-17 09:53:00,32.0,19.0,-100.00,West,273,0.0,0.0,58,-99.99,,,-99.99,231.000000,,2013-01-17 17:53:00,
2013-01-17 10:03:00,32.0,19.0,-100.00,West,273,0.0,0.0,58,-99.99,,,-99.99,231.000000,,2013-01-17 18:03:00,
2013-01-17 10:12:00,32.0,19.0,-100.00,West,273,0.0,0.0,58,-99.99,,,-99.99,231.000000,,2013-01-17 18:12:00,
2013-01-17 10:34:00,43.0,19.0,-100.00,NNE,20,0.0,0.0,38,0.00,,,0.23,383.000000,,2013-01-17 18:34:00,
2013-01-17 11:03:00,43.0,19.0,-100.00,NNE,20,0.0,0.0,38,0.00,,,0.23,383.000000,,2013-01-17 19:03:00,
2013-01-17 11:12:00,43.0,19.0,-100.00,NNE,20,0.0,0.0,38,0.00,,,0.23,383.000000,,2013-01-17 19:12:00,
2013-01-17 11:43:00,45.0,22.0,-100.00,NNE,12,0.0,3.0,40,0.00,,,0.23,486.000000,,2013-01-17 19:43:00,
2013-01-17 11:53:00,45.0,22.0,-100.00,NNE,12,0.0,3.0,40,0.00,,,0.23,486.000000,,2013-01-17 19:53:00,
2013-01-17 12:02:00,45.0,22.0,-100.00,NNE,12,0.0,3.0,40,0.00,,,0.23,486.000000,,2013-01-17 20:02:00,
2013-01-17 12:12:00,45.0,22.0,-100.00,NNE,12,0.0,3.0,40,0.00,,,0.23,486.000000,,2013-01-17 20:12:00,
2013-01-17 12:43:00,43.0,22.0,-100.00,WNW,299,0.0,4.0,43,0.01,,,0.21,528.000000,,2013-01-17 20:43:00,
2013-01-17 12:53:00,43.0,22.0,-100.00,WNW,299,0.0,4.0,43,0.01,,,0.21,528.000000,,2013-01-17 20:53:00,
2013-01-17 13:02:00,43.0,22.0,-100.00,WNW,299,0.0,4.0,43,0.01,,,0.21,528.000000,,2013-01-17 21:02:00,
2013-01-17 13:12:00,43.0,22.0,-100.00,WNW,299,0.0,4.0,43,0.01,,,0.21,528.000000,,2013-01-17 21:12:00,
2013-01-17 13:34:00,43.0,23.0,-100.00,NW,311,0.0,2.0,44,0.02,,,0.17,502.000000,,2013-01-17 21:34:00,
2013-01-17 13:43:00,43.0,23.0,-100.00,NW,311,0.0,2.0,44,0.02,,,0.17,502.000000,,2013-01-17 21:43:00,
2013-01-17 13:53:00,43.0,23.0,-100.00,NW,311,0.0,2.0,44,0.02,,,0.17,502.000000,,2013-01-17 21:53:00,
2013-01-17 14:03:00,43.0,23.0,-100.00,NW,311,0.0,2.0,44,0.02,,,0.17,502.000000,,2013-01-17 22:03:00,
2013-01-17 14:12:00,43.0,23.0,-100.00,NW,311,0.0,2.0,44,0.02,,,0.17,502.000000,,2013-01-17 22:12:00,
2013-01-17 14:33:00,38.0,22.0,-100.00,West,264,0.0,3.0,53,0.01,,,0.08,400.000000,,2013-01-17 22:33:00,
2013-01-17 14:43:00,38.0,22.0,-100.00,West,264,0.0,3.0,53,0.01,,,0.08,400.000000,,2013-01-17 22:43:00,
2013-01-17 14:52:00,38.0,22.0,-100.00,West,264,0.0,3.0,53,0.01,,,0.08,400.000000,,2013-01-17 22:52:00,
2013-01-17 15:43:00,38.0,23.0,-100.00,NNE,21,0.0,3.0,55,-99.99,,,0.06,42.000000,,2013-01-17 23:43:00,
2013-01-17 15:53:00,38.0,23.0,-100.00,NNE,21,0.0,3.0,55,-99.99,,,0.06,42.000000,,2013-01-17 23:53:00,
2013-01-17 16:02:00,38.0,23.0,-100.00,NNE,21,0.0,3.0,55,-99.99,,,0.06,42.000000,,2013-01-18 00:02:00,
2013-01-17 16:12:00,38.0,23.0,-100.00,NNE,21,0.0,3.0,55,-99.99,,,0.06,42.000000,,2013-01-18 00:12:00,
2013-01-17 16:43:00,37.0,20.0,-100.00,NNE,26,0.0,0.0,49,-99.99,,,-99.99,31.000000,,2013-01-18 00:43:00,
2013-01-17 16:53:00,37.0,20.0,-100.00,NNE,26,0.0,0.0,49,-99.99,,,-99.99,31.000000,,2013-01-18 00:53:00,
2013-01-17 17:02:00,37.0,20.0,-100.00,NNE,26,0.0,0.0,49,-99.99,,,-99.99,31.000000,,2013-01-18 01:02:00,
2013-01-17 17:12:00,37.0,20.0,-100.00,NNE,26,0.0,0.0,49,-99.99,,,-99.99,31.000000,,2013-01-18 01:12:00,
2013-01-17 17:33:00,36.0,20.0,-100.00,SE,143,0.0,2.0,51,0.00,,,-99.99,0.000000,,2013-01-18 01:33:00,
2013-01-17 17:43:00,36.0,20.0,-100.00,SE,143,0.0,2.0,51,0.00,,,-99.99,0.000000,,2013-01-18 01:43:00,
2013-01-17 17:53:00,36.0,20.0,-100.00,SE,143,0.0,2.0,51,0.00,,,-99.99,0.000000,,2013-01-18 01:53:00,
2013-01-17 18:02:00,36.0,20.0,-100.00,SE,143,0.0,2.0,51,0.00,,,-99.99,0.000000,,2013-01-18 02:02:00,
2013-01-17 18:12:00,36.0,20.0,-100.00,SE,143,0.0,2.0,51,0.00,,,-99.99,0.000000,,2013-01-18 02:12:00,
2013-01-17 18:43:00,37.0,20.0,-100.00,South,188,0.0,0.0,50,0.00,,,0.05,0.000000,,2013-01-18 02:43:00,
2013-01-17 18:53:00,37.0,20.0,-100.00,South,188,0.0,0.0,50,0.00,,,0.05,0.000000,,2013-01-18 02:53:00,
2013-01-17 19:02:00,37.0,20.0,-100.00,South,188,0.0,0.0,50,0.00,,,0.05,0.000000,,2013-01-18 03:02:00,
2013-01-17 19:12:00,37.0,20.0,-100.00,South,188,0.0,0.0,50,0.00,,,0.05,0.000000,,2013-01-18 03:12:00,
2013-01-17 19:33:00,34.0,17.0,-100.00,SW,229,0.0,0.0,50,0.00,,,-99.99,0.000000,,2013-01-18 03:33:00,
2013-01-17 19:43:00,34.0,17.0,-100.00,SW,229,0.0,0.0,50,0.00,,,-99.99,0.000000,,2013-01-18 03:43:00,
2013-01-17 19:52:00,34.0,17.0,-100.00,SW,229,0.0,0.0,50,0.00,,,-99.99,0.000000,,2013-01-18 03:52:00,
2013-01-17 20:02:00,34.0,17.0,-100.00,SW,229,0.0,0.0,50,0.00,,,-99.99,0.000000,,2013-01-18 04:02:00,
2013-01-17 20:12:00,34.0,17.0,-100.00,SW,229,0.0,0.0,50,0.00,,,-99.99,0.000000,,2013-01-18 04:12:00,
2013-01-17 20:33:00,38.0,18.0,-100.00,SW,229,0.0,0.0,43,0.00,,,0.05,0.000000,,2013-01-18 04:33:00,
2013-01-17 20:42:00,38.0,18.0,-100.00,SW,229,0.0,0.0,43,0.00,,,0.05,0.000000,,2013-01-18 04:42:00,
2013-01-17 20:53:00,38.0,18.0,-100.00,SW,229,0.0,0.0,43,0.00,,,0.05,0.000000,,2013-01-18 04:53:00,
2013-01-17 21:03:00,38.0,18.0,-100.00,SW,229,0.0,0.0,43,0.00,,,0.05,0.000000,,2013-01-18 05:03:00,
2013-01-17 21:12:00,38.0,18.0,-100.00,SW,229,0.0,0.0,43,0.00,,,0.05,0.000000,,2013-01-18 05:12:00,
2013-01-17 21:33:00,37.0,17.0,-100.00,SW,226,0.0,0.0,43,0.00,,,0.05,0.000000,,2013-01-18 05:33:00,
2013-01-17 21:43:00,37.0,17.0,-100.00,SW,226,0.0,0.0,43,0.00,,,0.05,0.000000,,2013-01-18 05:43:00,
2013-01-17 21:53:00,37.0,17.0,-100.00,SW,226,0.0,0.0,43,0.00,,,0.05,0.000000,,2013-01-18 05:53:00,
2013-01-17 22:02:00,37.0,17.0,-100.00,SW,226,0.0,0.0,43,0.00,,,0.05,0.000000,,2013-01-18 06:02:00,
2013-01-17 22:12:00,37.0,17.0,-100.00,SW,226,0.0,0.0,43,0.00,,,0.05,0.000000,,2013-01-18 06:12:00,
2013-01-17 22:33:00,38.0,16.0,-100.00,East,84,0.0,0.0,41,0.00,,,0.05,0.000000,,2013-01-18 06:33:00,
2013-01-17 22:43:00,38.0,16.0,-100.00,East,84,0.0,0.0,41,0.00,,,0.05,0.000000,,2013-01-18 06:43:00,
2013-01-17 22:52:00,38.0,16.0,-100.00,East,84,0.0,0.0,41,0.00,,,0.05,0.000000,,2013-01-18 06:52:00,
2013-01-17 23:02:00,38.0,16.0,-100.00,East,84,0.0,0.0,41,0.00,,,0.05,0.000000,,2013-01-18 07:02:00,
2013-01-17 23:12:00,38.0,16.0,-100.00,East,84,0.0,0.0,41,0.00,,,0.05,0.000000,,2013-01-18 07:12:00,
2013-01-17 23:33:00,40.0,16.0,-100.00,SSW,212,0.0,0.0,38,0.00,,,0.05,0.000000,,2013-01-18 07:33:00,
2013-01-17 23:42:00,40.0,16.0,-100.00,SSW,212,0.0,0.0,38,0.00,,,0.05,0.000000,,2013-01-18 07:42:00,
2013-01-17 23:52:00,40.0,16.0,-100.00,SSW,212,0.0,0.0,38,0.00,,,0.05,0.000000,,2013-01-18 07:52:00,